EGLC

London City Airport

London, United Kingdom
METAR EGLC 200020Z AUTO 09006KT 9999 NCD 20/08 Q1016
Observed Flight Rules
Jul-20 @ 00:20 UTC (37 minutes ago) Visual Flight Rules
Wind Visibility Clouds
90° at 6 knots 10,000+ meters
  • Clear skies
Temperatures Readings
Current 20°C / 68°F
Dewpoint 8°C / 46°F
Humidity 46%
Altimeter 30" Hg
Pressure 1016 hPa
Elevation 5
METAR EGLC 200020Z AUTO 09006KT 9999 NCD 20/08 Q1016
Observed Flight Rules
Jul-20 @ 00:20 UTC
(37 minutes ago)
VFR
Wind Visibility
90° at 6 knots 10,000+ meters
Clouds
  • Clear skies
Temperature Dewpoint
20°C / 68°F 8°C / 46°F
Humidity Altimeter Pressure
46% 30" Hg 1016 hPa